Time;durP1;ratioP1;P1;durP2;ratioP2;P2;SDS_P1;SDS_P2;PMS_P1;PMS_P2;Temp;Humidity;BMP_temperature;BMP_pressure;BME280_temperature;BME280_humidity;BME280_pressure;Samples;Min_cycle;Max_cycle;Signal;HPM_P1;HPM_P2
2023/05/11 00:01:38;;;;;;;2.57;1.80;;;9.20;99.90;;;;;;5093535;28;20210;-75
2023/05/11 00:04:06;;;;;;;3.27;1.90;;;9.20;99.90;;;;;;5092579;28;20237;-76
2023/05/11 00:06:34;;;;;;;2.80;2.17;;;9.20;99.90;;;;;;5094396;28;20215;-75
2023/05/11 00:09:02;;;;;;;6.07;1.80;;;9.20;99.90;;;;;;5093791;28;20206;-75
2023/05/11 00:11:32;;;;;;;2.63;1.83;;;9.20;99.90;;;;;;5092940;28;20250;-76
2023/05/11 00:14:00;;;;;;;2.77;1.80;;;9.20;99.90;;;;;;5092104;28;20233;-77
2023/05/11 00:16:28;;;;;;;2.20;1.67;;;9.20;99.90;;;;;;5093260;28;20214;-77
2023/05/11 00:18:56;;;;;;;3.03;1.73;;;9.10;99.90;;;;;;5093970;28;20260;-77
2023/05/11 00:21:25;;;;;;;2.40;1.50;;;9.20;99.90;;;;;;5078543;28;20268;-77
2023/05/11 00:23:53;;;;;;;1.73;1.60;;;9.10;99.90;;;;;;5073241;28;20207;-78
2023/05/11 00:26:21;;;;;;;2.30;1.70;;;9.10;99.90;;;;;;5073008;28;20563;-75
2023/05/11 00:28:50;;;;;;;1.70;1.60;;;9.10;99.90;;;;;;5072282;28;20575;-74
2023/05/11 00:31:18;;;;;;;2.33;1.40;;;9.10;99.90;;;;;;5071593;28;20251;-76
2023/05/11 00:33:47;;;;;;;2.53;1.50;;;9.10;99.90;;;;;;5071934;28;20223;-75
2023/05/11 00:36:15;;;;;;;2.40;1.73;;;9.10;99.90;;;;;;5072221;28;20302;-76
2023/05/11 00:38:43;;;;;;;2.67;1.80;;;9.00;99.90;;;;;;5082851;28;20233;-77
2023/05/11 00:41:11;;;;;;;3.63;1.80;;;9.00;99.90;;;;;;5073559;28;20219;-77
2023/05/11 00:43:39;;;;;;;1.57;1.47;;;9.00;99.90;;;;;;5073101;28;20253;-75
2023/05/11 00:46:09;;;;;;;2.37;1.70;;;9.00;99.90;;;;;;5072650;28;20211;-76
2023/05/11 00:48:37;;;;;;;2.57;1.70;;;9.00;99.90;;;;;;5072470;28;20237;-76
2023/05/11 00:51:06;;;;;;;3.47;1.57;;;9.00;99.90;;;;;;5072640;28;20211;-74
2023/05/11 00:53:34;;;;;;;1.83;1.70;;;9.00;99.90;;;;;;5071972;28;20215;-73
2023/05/11 00:56:03;;;;;;;1.70;1.53;;;9.00;99.90;;;;;;5078703;28;20289;-74
2023/05/11 00:58:31;;;;;;;2.53;1.73;;;9.00;99.90;;;;;;5092629;28;20210;-75
2023/05/11 01:01:00;;;;;;;2.90;1.70;;;9.00;99.90;;;;;;5092626;28;20217;-76
2023/05/11 01:03:30;;;;;;;2.50;1.57;;;8.90;99.90;;;;;;5092470;28;20257;-75
2023/05/11 01:06:08;;;;;;;1.87;1.70;;;9.00;99.90;;;;;;5091614;28;20210;-75
2023/05/11 01:08:41;;;;;;;1.93;1.40;;;8.90;99.90;;;;;;5092683;28;20207;-76
2023/05/11 01:11:16;;;;;;;4.33;1.63;;;8.90;99.90;;;;;;5092547;28;20207;-74
2023/05/11 01:13:48;;;;;;;5.53;1.60;;;8.90;99.90;;;;;;5091025;28;20670;-74
2023/05/11 01:16:20;;;;;;;3.17;1.70;;;8.90;99.90;;;;;;5092202;28;20284;-74
2023/05/11 01:18:55;;;;;;;2.03;1.70;;;8.90;99.90;;;;;;5092477;28;20289;-75
2023/05/11 01:21:24;;;;;;;3.03;1.70;;;8.90;99.90;;;;;;5077328;28;20207;-77
2023/05/11 01:24:20;;;;;;;4.00;1.70;;;8.90;99.90;;;;;;5071973;28;20294;-75
2023/05/11 01:27:06;;;;;;;2.23;1.60;;;8.90;99.90;;;;;;5072311;28;20211;-75
2023/05/11 01:29:53;;;;;;;2.77;1.70;;;8.90;99.90;;;;;;5078404;28;20293;-78
2023/05/11 01:32:26;;;;;;;3.77;1.77;;;8.80;99.90;;;;;;5092092;28;20207;-76
2023/05/11 01:35:06;;;;;;;1.73;1.60;;;8.90;99.90;;;;;;5092635;28;20260;-77
2023/05/11 01:37:35;;;;;;;2.23;1.70;;;8.90;99.90;;;;;;5094693;28;20203;-77
2023/05/11 01:40:12;;;;;;;2.17;1.40;;;8.80;99.90;;;;;;5094756;28;20290;-74
2023/05/11 01:42:44;;;;;;;1.93;1.60;;;8.90;99.90;;;;;;5095467;28;20206;-76
2023/05/11 01:45:14;;;;;;;3.40;1.60;;;8.80;99.90;;;;;;5096275;28;20206;-74
2023/05/11 01:47:45;;;;;;;5.03;1.80;;;8.90;99.90;;;;;;5096139;28;20755;-74
2023/05/11 01:50:14;;;;;;;2.60;1.63;;;8.90;99.90;;;;;;5078280;28;20629;-75
2023/05/11 01:52:44;;;;;;;3.20;1.50;;;8.90;99.90;;;;;;5075218;28;20543;-78
2023/05/11 01:55:17;;;;;;;1.77;1.57;;;8.90;99.90;;;;;;5075888;28;20211;-77
2023/05/11 01:57:46;;;;;;;3.00;1.60;;;8.90;99.90;;;;;;5075209;28;20251;-76
2023/05/11 02:00:16;;;;;;;2.83;1.60;;;8.80;99.90;;;;;;5082198;28;20207;-76
2023/05/11 02:02:48;;;;;;;2.40;1.50;;;8.80;99.90;;;;;;5078483;28;20231;-75
2023/05/11 02:05:22;;;;;;;3.23;1.70;;;8.80;99.90;;;;;;5075658;28;20269;-75
2023/05/11 02:07:51;;;;;;;4.73;1.80;;;8.80;99.90;;;;;;5075197;28;20203;-76
2023/05/11 02:10:21;;;;;;;3.43;1.90;;;8.80;99.90;;;;;;5075231;28;20207;-75
2023/05/11 02:12:51;;;;;;;2.53;1.70;;;8.80;99.90;;;;;;5074764;28;20302;-74
2023/05/11 02:15:21;;;;;;;3.10;1.90;;;8.80;99.90;;;;;;5074716;28;20840;-75
2023/05/11 02:17:52;;;;;;;1.83;1.73;;;8.80;99.90;;;;;;5075131;28;20204;-75
2023/05/11 02:20:21;;;;;;;2.77;1.67;;;8.80;99.90;;;;;;5075598;28;20191;-74
2023/05/11 02:22:50;;;;;;;2.00;1.70;;;8.80;99.90;;;;;;5074908;28;20214;-75
2023/05/11 02:25:19;;;;;;;1.83;1.63;;;8.80;99.90;;;;;;5074879;28;20668;-75
2023/05/11 02:27:47;;;;;;;2.73;1.50;;;8.90;99.90;;;;;;5075094;28;20203;-75
2023/05/11 02:30:15;;;;;;;3.67;1.50;;;8.80;99.90;;;;;;5074591;28;20235;-72
2023/05/11 02:32:49;;;;;;;1.63;1.53;;;8.80;99.90;;;;;;5074743;28;20211;-74
2023/05/11 02:35:23;;;;;;;2.23;1.40;;;8.80;99.90;;;;;;5085845;28;20237;-75
2023/05/11 02:37:55;;;;;;;4.37;1.70;;;8.80;99.90;;;;;;5095143;28;20229;-73
2023/05/11 02:40:29;;;;;;;3.43;1.50;;;8.80;99.90;;;;;;5095298;28;20282;-75
2023/05/11 02:43:01;;;;;;;1.80;1.67;;;8.80;99.90;;;;;;5094803;28;20210;-76
2023/05/11 02:45:32;;;;;;;3.63;1.80;;;8.80;99.90;;;;;;5093654;28;20203;-75
2023/05/11 02:48:05;;;;;;;2.43;1.60;;;8.80;99.90;;;;;;5094970;28;20203;-76
2023/05/11 02:50:39;;;;;;;2.70;1.60;;;8.80;99.90;;;;;;5094647;28;20747;-76
2023/05/11 02:53:11;;;;;;;1.70;1.60;;;8.80;99.90;;;;;;5082425;28;20211;-74
2023/05/11 02:55:40;;;;;;;2.10;1.57;;;8.80;99.90;;;;;;5074110;28;20220;-76
2023/05/11 02:58:08;;;;;;;2.47;1.60;;;8.70;99.90;;;;;;5074406;28;20199;-75
2023/05/11 03:00:38;;;;;;;2.40;1.57;;;8.70;99.90;;;;;;5080069;28;20246;-75
2023/05/11 03:03:06;;;;;;;2.43;1.80;;;8.80;99.90;;;;;;5094540;28;20298;-76
2023/05/11 03:05:36;;;;;;;3.47;1.47;;;8.80;99.90;;;;;;5089273;28;20207;-79
2023/05/11 03:08:05;;;;;;;1.83;1.60;;;8.70;99.90;;;;;;5080851;28;20207;-75
2023/05/11 03:10:33;;;;;;;2.87;1.70;;;8.70;99.90;;;;;;5073832;28;20207;-75
2023/05/11 03:13:02;;;;;;;4.37;1.70;;;8.70;99.90;;;;;;5079537;28;20203;-77
2023/05/11 03:15:31;;;;;;;4.07;1.70;;;8.70;99.90;;;;;;5094159;28;20226;-75
2023/05/11 03:18:00;;;;;;;1.93;1.80;;;8.70;99.90;;;;;;5093953;28;20207;-76
2023/05/11 03:20:31;;;;;;;1.67;1.57;;;8.70;99.90;;;;;;5090954;28;20293;-76
2023/05/11 03:23:01;;;;;;;3.63;1.80;;;8.70;99.90;;;;;;5073812;28;20231;-75
2023/05/11 03:25:30;;;;;;;2.00;1.80;;;8.70;99.90;;;;;;5073674;28;20290;-75
2023/05/11 03:28:00;;;;;;;3.73;1.73;;;8.70;99.90;;;;;;5073984;28;20295;-75
2023/05/11 03:30:29;;;;;;;3.07;1.80;;;8.70;99.90;;;;;;5088795;28;20726;-75
2023/05/11 03:32:57;;;;;;;2.33;1.80;;;8.70;99.90;;;;;;5094619;28;20230;-76
2023/05/11 03:35:27;;;;;;;4.30;1.90;;;8.70;99.90;;;;;;5094449;28;20265;-77
2023/05/11 03:37:58;;;;;;;3.67;1.70;;;8.70;99.90;;;;;;5094024;28;20625;-75
2023/05/11 03:40:30;;;;;;;3.93;1.60;;;8.70;99.90;;;;;;5091882;28;20210;-77
2023/05/11 03:43:00;;;;;;;2.80;1.60;;;8.70;99.90;;;;;;5093414;28;20761;-75
2023/05/11 03:45:30;;;;;;;2.47;1.70;;;8.70;99.90;;;;;;5093769;28;20593;-76
2023/05/11 03:48:00;;;;;;;2.40;1.80;;;8.70;99.90;;;;;;5092517;28;20214;-77
2023/05/11 03:50:29;;;;;;;2.30;2.10;;;8.70;99.90;;;;;;5093315;28;20210;-74
2023/05/11 03:52:58;;;;;;;2.20;1.73;;;8.70;99.90;;;;;;5092592;28;20207;-77
2023/05/11 03:55:28;;;;;;;2.73;2.17;;;8.70;99.90;;;;;;5093396;28;20265;-77
2023/05/11 03:57:56;;;;;;;1.70;1.60;;;8.70;99.90;;;;;;5073016;28;20653;-75
2023/05/11 04:00:24;;;;;;;1.70;1.60;;;8.70;99.90;;;;;;5072684;28;20226;-75
2023/05/11 04:02:52;;;;;;;4.87;1.67;;;8.70;99.90;;;;;;5072932;28;20207;-78
2023/05/11 04:05:21;;;;;;;2.03;1.60;;;8.70;99.90;;;;;;5073063;28;20703;-76
2023/05/11 04:07:53;;;;;;;4.00;1.60;;;8.70;99.90;;;;;;5072538;28;20204;-76
2023/05/11 04:10:22;;;;;;;1.90;1.47;;;8.60;99.90;;;;;;5072397;28;20207;-75
2023/05/11 04:12:51;;;;;;;3.20;1.60;;;8.70;99.90;;;;;;5072703;28;20242;-76
2023/05/11 04:15:19;;;;;;;3.20;1.60;;;8.70;99.90;;;;;;5072930;28;20203;-74
2023/05/11 04:17:48;;;;;;;2.47;1.30;;;8.70;99.90;;;;;;5081594;28;20550;-77
2023/05/11 04:20:16;;;;;;;1.13;1.13;;;8.70;99.90;;;;;;5093592;28;20253;-76
2023/05/11 04:22:45;;;;;;;2.00;1.30;;;8.80;99.90;;;;;;5101355;28;20246;-74
2023/05/11 04:25:13;;;;;;;6.13;1.40;;;8.70;99.90;;;;;;5116007;28;20266;-76
2023/05/11 04:27:41;;;;;;;1.43;1.30;;;8.80;99.90;;;;;;5103863;28;20207;-74
2023/05/11 04:30:12;;;;;;;1.43;1.30;;;8.70;99.90;;;;;;5095121;28;20783;-75
2023/05/11 04:32:40;;;;;;;2.77;1.27;;;8.70;99.90;;;;;;5086240;28;20213;-75
2023/05/11 04:35:09;;;;;;;1.63;1.20;;;8.70;99.90;;;;;;5081624;28;20203;-74
2023/05/11 04:37:36;;;;;;;1.30;1.20;;;8.70;99.90;;;;;;5100082;28;20226;-80
2023/05/11 04:40:06;;;;;;;2.57;1.10;;;8.70;99.90;;;;;;5094478;28;20263;-72
2023/05/11 04:42:34;;;;;;;1.93;1.23;;;8.70;99.90;;;;;;5093349;28;20284;-75
2023/05/11 04:45:02;;;;;;;4.00;1.30;;;8.80;99.90;;;;;;5092347;28;20579;-72
2023/05/11 04:47:31;;;;;;;1.67;1.33;;;8.80;99.90;;;;;;5094362;28;20645;-74
2023/05/11 04:50:00;;;;;;;2.33;1.50;;;8.80;99.90;;;;;;5093076;28;20290;-73
2023/05/11 04:52:28;;;;;;;1.90;1.27;;;8.80;99.90;;;;;;5088965;28;20214;-76
2023/05/11 04:54:56;;;;;;;2.37;1.30;;;8.80;99.90;;;;;;5094403;28;20230;-76
2023/05/11 04:57:24;;;;;;;1.40;1.20;;;8.80;99.90;;;;;;5093854;28;20222;-74
2023/05/11 04:59:52;;;;;;;2.93;1.30;;;8.80;99.90;;;;;;5092420;28;20293;-79
2023/05/11 05:02:21;;;;;;;1.03;0.90;;;8.90;99.90;;;;;;5091675;28;20371;-75
2023/05/11 05:04:50;;;;;;;2.53;1.43;;;8.90;99.90;;;;;;5089892;28;20210;-76
2023/05/11 05:07:18;;;;;;;1.67;1.40;;;9.00;99.90;;;;;;5092224;28;20199;-77
2023/05/11 05:09:46;;;;;;;1.50;1.20;;;8.90;99.90;;;;;;5091998;28;20195;-76
2023/05/11 05:12:15;;;;;;;1.70;1.60;;;9.00;99.90;;;;;;5092346;28;20231;-75
2023/05/11 05:14:43;;;;;;;1.97;1.70;;;9.10;99.90;;;;;;5096482;28;20211;-77
2023/05/11 05:17:11;;;;;;;2.30;1.13;;;9.10;99.90;;;;;;5096251;28;20329;-75
2023/05/11 05:19:39;;;;;;;1.50;1.40;;;9.10;99.90;;;;;;5092857;28;20607;-75
2023/05/11 05:22:08;;;;;;;1.50;1.40;;;9.20;99.90;;;;;;5095213;28;20656;-75
2023/05/11 05:24:36;;;;;;;1.93;1.17;;;9.20;99.90;;;;;;5095555;28;20197;-77
2023/05/11 05:27:04;;;;;;;2.03;0.87;;;9.20;99.90;;;;;;5106046;28;20234;-74
2023/05/11 05:29:33;;;;;;;1.63;1.00;;;9.20;99.90;;;;;;5096130;28;20285;-75
2023/05/11 05:32:01;;;;;;;1.83;1.03;;;9.10;99.90;;;;;;5096450;28;20217;-75
2023/05/11 05:34:29;;;;;;;1.03;1.00;;;9.10;99.90;;;;;;5092659;28;20672;-75
2023/05/11 05:36:57;;;;;;;2.73;1.27;;;9.10;99.90;;;;;;5095901;28;20223;-74
2023/05/11 05:39:27;;;;;;;2.23;1.40;;;9.10;99.90;;;;;;5095740;28;20575;-74
2023/05/11 05:41:55;;;;;;;2.47;1.50;;;9.10;99.90;;;;;;5095311;28;20301;-74
2023/05/11 05:44:23;;;;;;;1.10;1.10;;;9.10;99.90;;;;;;5095109;28;20294;-76
2023/05/11 05:46:51;;;;;;;1.63;1.27;;;9.10;99.90;;;;;;5095492;28;20199;-75
2023/05/11 05:49:19;;;;;;;1.67;1.20;;;9.10;99.90;;;;;;5095377;28;20554;-76
2023/05/11 05:51:49;;;;;;;2.00;1.30;;;9.10;99.90;;;;;;5093997;28;20206;-74
2023/05/11 05:54:17;;;;;;;2.77;1.20;;;9.00;99.90;;;;;;5095200;28;20210;-76
2023/05/11 05:56:48;;;;;;;2.00;1.57;;;9.00;99.90;;;;;;5094511;28;20241;-75
2023/05/11 05:59:17;;;;;;;1.60;1.50;;;9.00;99.90;;;;;;5095230;28;20188;-75
2023/05/11 06:01:46;;;;;;;1.73;1.50;;;8.90;99.90;;;;;;5074781;28;20203;-76
2023/05/11 06:04:15;;;;;;;1.80;1.40;;;9.00;99.90;;;;;;5074313;28;20238;-75
2023/05/11 06:06:44;;;;;;;1.37;1.27;;;8.90;99.90;;;;;;5082514;28;20207;-77
2023/05/11 06:09:13;;;;;;;1.30;1.20;;;9.00;99.90;;;;;;5074374;28;20204;-75
2023/05/11 06:11:41;;;;;;;1.47;1.17;;;9.00;99.90;;;;;;5074889;28;20222;-76
2023/05/11 06:14:10;;;;;;;1.27;1.17;;;9.00;99.90;;;;;;5074739;28;20580;-76
2023/05/11 06:16:39;;;;;;;1.93;1.40;;;8.90;99.90;;;;;;5074879;28;20218;-76
2023/05/11 06:19:08;;;;;;;3.63;1.80;;;9.00;99.90;;;;;;5074308;28;20269;-75
2023/05/11 06:21:36;;;;;;;2.73;1.40;;;9.00;99.90;;;;;;5074535;28;20271;-77
2023/05/11 06:24:05;;;;;;;2.33;1.70;;;9.00;99.90;;;;;;5074556;28;20248;-75
2023/05/11 06:26:33;;;;;;;2.30;1.40;;;9.00;99.90;;;;;;5074647;28;20215;-75
2023/05/11 06:29:01;;;;;;;2.03;1.47;;;9.00;99.90;;;;;;5074911;28;20208;-74
2023/05/11 06:31:31;;;;;;;5.00;1.63;;;9.00;99.90;;;;;;5094852;28;20321;-74
2023/05/11 06:33:59;;;;;;;1.50;1.40;;;9.10;99.90;;;;;;5094736;28;20767;-74
2023/05/11 06:36:27;;;;;;;1.60;1.10;;;9.10;99.90;;;;;;5082230;28;20208;-77
2023/05/11 06:38:55;;;;;;;1.63;1.23;;;9.10;99.90;;;;;;5074570;28;20312;-73
2023/05/11 06:41:23;;;;;;;2.07;1.30;;;9.10;99.90;;;;;;5074547;28;20230;-73
2023/05/11 06:43:51;;;;;;;1.53;1.20;;;9.00;99.90;;;;;;5085505;28;20234;-76
2023/05/11 06:46:20;;;;;;;3.53;1.43;;;9.10;99.90;;;;;;5094939;28;20620;-76
2023/05/11 06:48:50;;;;;;;1.40;1.20;;;9.10;99.90;;;;;;5081508;28;20218;-75
2023/05/11 06:51:20;;;;;;;1.40;1.30;;;9.10;99.90;;;;;;5074643;28;20230;-76
2023/05/11 06:53:48;;;;;;;1.70;1.20;;;9.10;99.90;;;;;;5074494;28;20539;-74
2023/05/11 06:56:16;;;;;;;2.23;1.40;;;9.10;99.90;;;;;;5080197;28;20207;-73
2023/05/11 06:58:45;;;;;;;1.40;1.30;;;9.20;99.90;;;;;;5097772;28;20228;-75
2023/05/11 07:01:13;;;;;;;2.63;1.60;;;9.20;99.90;;;;;;5094697;28;20230;-76
2023/05/11 07:03:41;;;;;;;2.97;1.50;;;9.30;99.90;;;;;;5094069;28;20211;-76
2023/05/11 07:06:11;;;;;;;1.43;1.30;;;9.40;99.90;;;;;;5093285;28;20214;-76
2023/05/11 07:08:39;;;;;;;1.83;1.20;;;9.40;99.90;;;;;;5094151;28;20232;-75
2023/05/11 07:11:08;;;;;;;1.63;1.40;;;9.50;99.90;;;;;;5094234;28;20225;-77
2023/05/11 07:13:36;;;;;;;1.67;1.30;;;9.40;99.90;;;;;;5077578;28;20657;-76
2023/05/11 07:16:05;;;;;;;1.37;1.27;;;9.40;99.90;;;;;;5074061;28;20307;-77
2023/05/11 07:18:33;;;;;;;1.67;1.30;;;9.50;99.90;;;;;;5073252;28;20270;-74
2023/05/11 07:21:01;;;;;;;2.10;1.43;;;9.50;99.90;;;;;;5080400;28;20210;-76
2023/05/11 07:23:31;;;;;;;1.63;1.40;;;9.60;99.90;;;;;;5093257;28;20221;-75
2023/05/11 07:25:59;;;;;;;2.37;1.50;;;9.60;99.90;;;;;;5093685;28;20202;-76
2023/05/11 07:28:27;;;;;;;3.93;1.67;;;9.60;99.90;;;;;;5092636;28;20199;-75
2023/05/11 07:30:55;;;;;;;2.40;1.50;;;9.60;99.90;;;;;;5092138;28;20283;-76
2023/05/11 07:33:24;;;;;;;2.23;1.50;;;9.60;99.90;;;;;;5092291;28;20218;-75
2023/05/11 07:35:53;;;;;;;1.67;1.40;;;9.70;99.90;;;;;;5096082;28;20210;-75
2023/05/11 07:38:21;;;;;;;2.67;1.50;;;9.80;99.90;;;;;;5093035;28;20309;-76
2023/05/11 07:40:51;;;;;;;3.13;1.60;;;9.80;99.90;;;;;;5089027;28;20217;-73
2023/05/11 07:43:19;;;;;;;1.60;1.50;;;9.70;99.90;;;;;;5092675;28;20248;-73
2023/05/11 07:45:47;;;;;;;4.40;1.90;;;9.70;99.90;;;;;;5092543;28;20203;-77
2023/05/11 07:48:16;;;;;;;2.90;1.27;;;9.70;99.90;;;;;;5090463;28;20575;-78
2023/05/11 07:50:44;;;;;;;2.00;1.40;;;9.70;99.90;;;;;;5089998;28;20226;-78
2023/05/11 07:53:13;;;;;;;2.63;1.23;;;9.70;99.90;;;;;;5090301;28;20511;-75
2023/05/11 07:55:41;;;;;;;2.27;1.27;;;9.60;99.90;;;;;;5092379;28;20643;-74
2023/05/11 07:58:11;;;;;;;2.47;1.20;;;9.60;99.90;;;;;;5092376;28;20221;-75
2023/05/11 08:00:39;;;;;;;1.40;1.30;;;9.70;99.90;;;;;;5089531;28;20233;-79
2023/05/11 08:03:08;;;;;;;1.87;1.20;;;9.70;99.90;;;;;;5092041;28;20199;-77
2023/05/11 08:05:36;;;;;;;1.83;1.00;;;9.70;99.90;;;;;;5092699;28;20199;-76
2023/05/11 08:08:05;;;;;;;1.77;1.07;;;9.60;99.90;;;;;;5090411;28;20217;-79
2023/05/11 08:10:33;;;;;;;1.10;1.00;;;9.60;99.90;;;;;;5090667;28;20206;-79
2023/05/11 08:13:01;;;;;;;3.03;1.20;;;9.60;99.90;;;;;;5091357;28;20217;-73
2023/05/11 08:15:31;;;;;;;2.83;1.10;;;9.60;99.90;;;;;;5091580;28;20198;-75
2023/05/11 08:18:00;;;;;;;1.00;1.00;;;9.70;99.90;;;;;;5090981;28;20683;-75
2023/05/11 08:20:29;;;;;;;1.97;1.00;;;9.70;99.90;;;;;;5090703;28;20230;-75
2023/05/11 08:22:57;;;;;;;1.30;1.20;;;9.70;99.90;;;;;;5091078;28;20203;-75
2023/05/11 08:25:25;;;;;;;1.23;0.90;;;9.70;99.90;;;;;;5090231;28;20199;-74
2023/05/11 08:27:54;;;;;;;1.90;1.30;;;9.80;99.90;;;;;;5091462;28;20233;-74
2023/05/11 08:30:22;;;;;;;1.13;1.00;;;9.80;99.90;;;;;;5089730;28;20226;-74
2023/05/11 08:32:51;;;;;;;2.77;1.50;;;9.90;99.90;;;;;;5091025;28;20244;-74
2023/05/11 08:35:26;;;;;;;1.30;1.20;;;9.90;99.90;;;;;;5090484;28;20554;-75
2023/05/11 08:37:54;;;;;;;2.17;1.70;;;9.90;99.90;;;;;;5091627;28;20614;-76
2023/05/11 08:40:26;;;;;;;3.77;2.00;;;10.00;99.90;;;;;;5090397;28;20211;-75
2023/05/11 08:42:56;;;;;;;1.20;1.10;;;10.10;99.90;;;;;;5090473;28;20202;-75
2023/05/11 08:45:26;;;;;;;1.13;0.80;;;10.20;99.90;;;;;;5090702;28;20289;-73
2023/05/11 08:47:56;;;;;;;1.90;0.90;;;10.20;99.90;;;;;;5094568;28;20203;-77
2023/05/11 08:50:24;;;;;;;1.00;0.90;;;10.20;99.90;;;;;;5093487;28;20195;-75
2023/05/11 08:52:52;;;;;;;1.23;0.90;;;10.20;99.90;;;;;;5095296;28;20207;-75
2023/05/11 08:55:22;;;;;;;1.70;0.70;;;10.20;99.90;;;;;;5095255;28;20203;-76
2023/05/11 08:57:53;;;;;;;0.93;0.87;;;10.10;99.90;;;;;;5094716;28;20298;-80
2023/05/11 09:00:22;;;;;;;1.40;0.70;;;10.10;99.90;;;;;;5094982;28;20237;-76
2023/05/11 09:02:52;;;;;;;0.93;0.70;;;10.00;99.90;;;;;;5095328;28;20290;-75
2023/05/11 09:05:22;;;;;;;0.70;0.70;;;10.00;99.90;;;;;;5094286;28;20202;-75
2023/05/11 09:07:54;;;;;;;1.80;0.70;;;9.90;99.90;;;;;;5095356;28;20328;-74
2023/05/11 09:10:22;;;;;;;1.43;0.90;;;9.90;99.90;;;;;;5095236;28;20658;-76
2023/05/11 09:12:51;;;;;;;2.77;0.80;;;9.80;99.90;;;;;;5094716;28;20215;-77
2023/05/11 09:15:19;;;;;;;0.93;0.73;;;9.80;99.90;;;;;;5093416;28;20638;-78
2023/05/11 09:17:47;;;;;;;1.23;0.97;;;9.80;99.90;;;;;;5095112;28;20195;-77
2023/05/11 09:20:15;;;;;;;0.80;0.80;;;9.90;99.90;;;;;;5094769;28;20222;-77
2023/05/11 09:22:46;;;;;;;1.50;0.83;;;9.90;99.90;;;;;;5092417;28;20248;-77
2023/05/11 09:25:16;;;;;;;1.20;1.10;;;9.90;99.90;;;;;;5094529;28;20199;-76
2023/05/11 09:27:46;;;;;;;1.63;1.00;;;9.90;99.90;;;;;;5094727;28;20199;-73
2023/05/11 09:30:16;;;;;;;0.93;0.80;;;10.00;99.90;;;;;;5095009;28;20303;-73
2023/05/11 09:32:49;;;;;;;0.60;0.60;;;10.10;99.90;;;;;;5092528;28;20207;-76
2023/05/11 09:35:22;;;;;;;1.93;0.90;;;10.20;99.90;;;;;;5094137;28;20206;-76
2023/05/11 09:38:04;;;;;;;1.23;0.77;;;10.30;99.90;;;;;;5094040;28;20195;-74
2023/05/11 09:40:34;;;;;;;1.77;0.70;;;10.30;99.90;;;;;;5094019;28;20226;-77
2023/05/11 09:43:15;;;;;;;1.33;0.63;;;10.30;99.90;;;;;;5093633;28;20203;-74
2023/05/11 09:45:44;;;;;;;3.30;0.80;;;10.50;99.90;;;;;;5094817;28;20194;-75
2023/05/11 09:48:25;;;;;;;0.50;0.50;;;10.40;99.90;;;;;;5094376;28;20207;-73
2023/05/11 09:51:00;;;;;;;0.67;0.67;;;10.50;99.90;;;;;;5093253;28;20209;-75
2023/05/11 09:53:41;;;;;;;0.60;0.60;;;10.60;99.90;;;;;;5093092;28;20267;-73
2023/05/11 09:56:11;;;;;;;0.47;0.47;;;10.70;99.90;;;;;;5093520;28;20285;-74
2023/05/11 09:58:51;;;;;;;1.00;0.60;;;10.60;99.90;;;;;;5092896;28;20227;-75
2023/05/11 10:01:29;;;;;;;1.90;0.80;;;10.70;99.90;;;;;;5093782;28;20229;-74
2023/05/11 10:03:59;;;;;;;1.70;0.70;;;10.70;99.90;;;;;;5093701;28;20203;-75
2023/05/11 10:06:49;;;;;;;1.70;0.90;;;10.70;99.90;;;;;;5091416;28;20210;-76
2023/05/11 10:09:23;;;;;;;0.83;0.50;;;10.60;99.90;;;;;;5093972;28;20195;-74
2023/05/11 10:11:53;;;;;;;1.10;0.97;;;10.60;99.90;;;;;;5092820;28;20207;-78
2023/05/11 10:14:23;;;;;;;0.90;0.90;;;10.70;99.90;;;;;;5103253;28;20259;-77
2023/05/11 10:16:52;;;;;;;1.73;1.10;;;10.50;99.90;;;;;;5093847;28;20303;-77
2023/05/11 10:19:20;;;;;;;1.10;1.10;;;10.40;99.90;;;;;;5094061;28;20272;-75
2023/05/11 10:21:48;;;;;;;0.90;0.90;;;10.30;99.90;;;;;;5093503;28;20195;-76
2023/05/11 10:24:17;;;;;;;1.83;0.97;;;10.30;99.90;;;;;;5093846;28;20202;-76
2023/05/11 10:26:49;;;;;;;1.50;0.83;;;10.20;99.90;;;;;;5092851;28;20567;-75
2023/05/11 10:29:19;;;;;;;0.80;0.77;;;10.10;99.90;;;;;;5104528;28;20203;-75
2023/05/11 10:31:49;;;;;;;1.47;0.80;;;10.00;99.90;;;;;;5095164;28;20215;-75
2023/05/11 10:34:22;;;;;;;1.90;0.87;;;10.00;99.90;;;;;;5100661;28;20583;-75
2023/05/11 10:36:52;;;;;;;0.70;0.70;;;10.10;99.90;;;;;;5096232;28;20203;-75
2023/05/11 10:39:21;;;;;;;1.10;1.00;;;10.20;99.90;;;;;;5095369;28;20646;-74
2023/05/11 10:42:02;;;;;;;1.33;0.80;;;10.30;99.90;;;;;;5094434;28;20253;-76
2023/05/11 10:44:58;;;;;;;1.73;0.90;;;10.30;99.90;;;;;;5093882;28;20210;-74
2023/05/11 10:48:06;;;;;;;1.17;0.90;;;10.40;99.90;;;;;;5094592;28;20565;-76
2023/05/11 10:50:55;;;;;;;0.90;0.90;;;10.50;99.90;;;;;;5071905;28;20213;-74
2023/05/11 10:53:53;;;;;;;1.00;0.90;;;10.60;99.90;;;;;;5070293;28;20286;-74
2023/05/11 10:56:41;;;;;;;1.63;1.20;;;10.70;99.90;;;;;;5072618;28;20299;-74
2023/05/11 10:59:37;;;;;;;1.57;1.10;;;10.60;99.90;;;;;;5078092;28;20618;-76
2023/05/11 11:02:06;;;;;;;1.43;0.80;;;10.60;99.90;;;;;;5089128;28;20218;-75
2023/05/11 11:04:45;;;;;;;1.57;1.20;;;10.70;99.90;;;;;;5093956;28;20203;-75
2023/05/11 11:07:17;;;;;;;1.10;0.80;;;10.70;99.90;;;;;;5093648;28;20256;-75
2023/05/11 11:09:58;;;;;;;1.87;0.67;;;10.70;99.90;;;;;;5093991;28;20278;-77
2023/05/11 11:12:28;;;;;;;2.90;0.97;;;10.70;99.90;;;;;;5093092;28;20225;-77
2023/05/11 11:15:00;;;;;;;0.80;0.80;;;10.70;99.90;;;;;;5093436;28;20203;-75
2023/05/11 11:17:30;;;;;;;1.43;0.90;;;10.70;99.90;;;;;;5091935;28;20207;-75
2023/05/11 11:20:00;;;;;;;0.80;0.80;;;10.80;99.90;;;;;;5094865;28;20241;-77
2023/05/11 11:22:45;;;;;;;0.87;0.70;;;10.90;99.90;;;;;;5097436;28;20242;-76
2023/05/11 11:25:16;;;;;;;0.90;0.70;;;10.90;99.90;;;;;;5104134;28;20203;-77
2023/05/11 11:27:58;;;;;;;0.70;0.70;;;11.00;99.90;;;;;;5116854;28;20217;-73
2023/05/11 11:30:29;;;;;;;1.37;0.70;;;11.10;99.90;;;;;;5096340;28;20648;-76
2023/05/11 11:33:31;;;;;;;0.80;0.80;;;11.10;99.90;;;;;;5092224;28;20214;-75
2023/05/11 11:35:59;;;;;;;0.70;0.70;;;11.20;99.90;;;;;;5093358;28;20203;-75
2023/05/11 11:38:28;;;;;;;1.10;0.87;;;11.20;99.90;;;;;;5093005;28;20618;-74
2023/05/11 11:40:57;;;;;;;1.57;1.00;;;11.20;99.90;;;;;;5090599;28;20233;-74
2023/05/11 11:43:45;;;;;;;0.80;0.80;;;11.20;99.90;;;;;;5091352;28;20199;-74
2023/05/11 11:46:27;;;;;;;1.40;1.00;;;11.20;99.90;;;;;;5092854;28;20203;-75
2023/05/11 11:49:08;;;;;;;0.80;0.80;;;11.10;99.90;;;;;;5092092;28;20213;-76
2023/05/11 11:51:39;;;;;;;2.30;1.10;;;11.00;99.90;;;;;;5092861;28;20210;-75
2023/05/11 11:54:08;;;;;;;1.43;1.00;;;10.90;99.90;;;;;;5092874;28;20267;-75
2023/05/11 11:56:47;;;;;;;1.03;0.93;;;10.70;99.90;;;;;;5093288;28;20245;-75
2023/05/11 11:59:15;;;;;;;1.20;1.10;;;11.00;99.90;;;;;;5083883;28;20303;-75
2023/05/11 12:01:45;;;;;;;0.80;0.80;;;11.20;99.90;;;;;;5072482;28;20235;-73
2023/05/11 12:04:40;;;;;;;2.17;0.90;;;11.40;99.90;;;;;;5072753;28;20683;-77
2023/05/11 12:07:12;;;;;;;1.83;0.80;;;11.60;99.90;;;;;;5082668;28;20210;-74
2023/05/11 12:09:41;;;;;;;1.63;0.90;;;11.80;99.90;;;;;;5091041;28;20202;-75
2023/05/11 12:12:10;;;;;;;1.20;1.10;;;12.10;99.90;;;;;;5090436;28;20221;-75
2023/05/11 12:14:40;;;;;;;2.80;1.00;;;12.00;99.90;;;;;;5091382;28;20260;-74
2023/05/11 12:17:14;;;;;;;1.90;1.63;;;12.10;99.90;;;;;;5090461;28;20748;-76
2023/05/11 12:19:44;;;;;;;1.77;1.10;;;12.30;99.90;;;;;;5090663;28;20633;-76
2023/05/11 12:22:15;;;;;;;2.13;1.00;;;11.90;99.90;;;;;;5090515;28;20623;-74
2023/05/11 12:24:43;;;;;;;1.30;1.20;;;11.50;99.90;;;;;;5085615;28;20214;-75
2023/05/11 12:27:11;;;;;;;1.13;1.10;;;11.20;99.90;;;;;;5092357;28;20210;-74
2023/05/11 12:29:40;;;;;;;1.10;0.90;;;10.90;99.90;;;;;;5092385;28;20388;-75
2023/05/11 12:32:13;;;;;;;1.00;0.90;;;10.70;99.90;;;;;;5091280;28;20203;-76
2023/05/11 12:34:41;;;;;;;2.00;1.10;;;10.40;99.90;;;;;;5092410;28;20207;-76
2023/05/11 12:37:10;;;;;;;1.47;1.10;;;10.40;99.90;;;;;;5092349;28;20270;-75
2023/05/11 12:39:38;;;;;;;1.73;1.30;;;10.40;99.90;;;;;;5091808;28;20585;-76
2023/05/11 12:42:06;;;;;;;2.23;1.00;;;10.40;99.90;;;;;;5093924;28;20696;-78
2023/05/11 12:44:35;;;;;;;1.20;1.00;;;10.30;99.90;;;;;;5097323;28;20215;-75
2023/05/11 12:47:03;;;;;;;0.90;0.90;;;10.30;99.90;;;;;;5093835;28;20252;-74
2023/05/11 12:49:34;;;;;;;1.33;1.23;;;10.20;99.90;;;;;;5095391;28;20593;-74
2023/05/11 12:52:07;;;;;;;5.87;4.00;;;10.20;99.90;;;;;;5092676;28;20203;-73
2023/05/11 12:54:37;;;;;;;3.27;2.33;;;10.20;99.90;;;;;;5094208;28;20218;-74
2023/05/11 12:57:07;;;;;;;2.40;2.13;;;10.10;99.90;;;;;;5095580;28;20211;-77
2023/05/11 12:59:37;;;;;;;3.33;1.83;;;10.10;99.90;;;;;;5092553;28;20628;-75
2023/05/11 13:02:10;;;;;;;2.03;1.37;;;10.30;99.90;;;;;;5091384;28;20339;-74
2023/05/11 13:04:41;;;;;;;1.40;1.23;;;10.20;99.90;;;;;;5092367;28;20207;-75
2023/05/11 13:07:10;;;;;;;1.53;1.33;;;10.40;99.90;;;;;;5092441;28;20217;-74
2023/05/11 13:09:39;;;;;;;1.27;1.17;;;10.40;99.90;;;;;;5092150;28;20270;-75
2023/05/11 13:12:12;;;;;;;1.63;1.50;;;10.50;99.90;;;;;;5090585;28;20207;-76